Hull, Wisconsin
Current Conditions -  °F | °C
As of 12:15 PM on Saturday 20 Dec 2014 (Local Time) from KSTE Reporting Station
Overcast Overcast  
Wind Chill: 21°   Ceiling: 1200
Heat Index: 28°   Visibility: 10mi
Dew Point: 23°   Wind: 6mph
Humidity: 82%   Direction: 160°SSE
Pressure: 30.2"   Gusts: NA
Location:  44.5531°N, 89.5186°W
Report Text: KSTE 201815Z AUTO 16005KT 10SM BKN012 BKN018 OVC035 M02/M05 A3020 RMK AO2 T10251052
Loading
Personal Weather Stations






























Interactive Weather Map New forecast layout! Learn more

10-Day Weather Forecast

Advertisements
Track Severe Weather on mobile